createdAt,value
2023-04-26T00:02:18.321Z,5.54
2023-04-26T00:08:38.260Z,5.5
2023-04-26T00:15:01.216Z,5.45
2023-04-26T00:21:21.296Z,5.38
2023-04-26T00:27:44.215Z,5.32
2023-04-26T00:34:04.347Z,5.21
2023-04-26T00:40:27.178Z,5.11
2023-04-26T00:46:47.146Z,4.97
2023-04-26T00:53:10.266Z,4.85
2023-04-26T00:59:30.224Z,4.76
2023-04-26T01:05:53.233Z,4.6
2023-04-26T01:12:13.315Z,4.54
2023-04-26T01:18:36.303Z,4.47
2023-04-26T01:24:56.244Z,4.43
2023-04-26T01:31:19.214Z,4.29
2023-04-26T01:37:39.217Z,4.14
2023-04-26T01:44:02.229Z,4.06
2023-04-26T01:50:22.281Z,3.97
2023-04-26T01:56:45.267Z,3.9
2023-04-26T02:03:05.245Z,3.79
2023-04-26T02:09:28.259Z,3.62
2023-04-26T02:15:48.319Z,3.57
2023-04-26T02:22:11.174Z,3.44
2023-04-26T02:28:31.398Z,3.36
2023-04-26T02:34:54.237Z,3.36
2023-04-26T02:41:14.183Z,3.35
2023-04-26T02:47:37.281Z,3.29
2023-04-26T02:53:57.205Z,3.27
2023-04-26T03:00:20.250Z,3.23
2023-04-26T03:06:40.329Z,3.18
2023-04-26T03:24:45.731Z,3.04
2023-04-26T03:31:05.210Z,2.95
2023-04-26T03:37:28.190Z,2.89
2023-04-26T03:43:48.196Z,2.88
2023-04-26T03:50:11.187Z,2.94
2023-04-26T03:56:31.175Z,3
2023-04-26T04:02:54.406Z,3.05
2023-04-26T04:09:14.212Z,2.96
2023-04-26T04:15:37.183Z,2.94
2023-04-26T04:21:57.330Z,2.96
2023-04-26T04:28:20.214Z,2.86
2023-04-26T04:34:40.199Z,2.83
2023-04-26T04:41:03.231Z,2.79
2023-04-26T04:47:23.323Z,2.71
2023-04-26T04:53:46.223Z,2.76
2023-04-26T05:00:06.256Z,2.84
2023-04-26T05:06:29.198Z,2.84
2023-04-26T05:12:49.286Z,2.85
2023-04-26T05:19:12.290Z,2.92
2023-04-26T05:25:32.218Z,2.85
2023-04-26T05:31:55.158Z,2.86
2023-04-26T05:38:15.344Z,3.03
2023-04-26T05:44:38.206Z,3.13
2023-04-26T05:50:58.239Z,3.26
2023-04-26T05:57:21.246Z,3.43
2023-04-26T06:03:41.365Z,3.64
2023-04-26T06:10:04.293Z,3.79
2023-04-26T06:16:24.318Z,3.85
2023-04-26T06:22:47.148Z,4.05
2023-04-26T06:29:07.173Z,4.29
2023-04-26T06:35:30.208Z,4.46
2023-04-26T06:41:52.392Z,4.67
2023-04-26T06:48:13.318Z,4.84
2023-04-26T06:54:34.607Z,5.03
2023-04-26T07:00:56.166Z,5.31
2023-04-26T07:07:16.331Z,5.55
2023-04-26T07:13:39.358Z,5.95
2023-04-26T07:19:59.180Z,6.39
2023-04-26T07:26:22.199Z,6.69
2023-04-26T07:32:42.372Z,6.75
2023-04-26T07:39:05.284Z,6.83
2023-04-26T07:45:25.210Z,7
2023-04-26T07:51:48.274Z,7.11
2023-04-26T07:58:08.345Z,7.41
2023-04-26T08:04:31.377Z,7.56
2023-04-26T08:10:51.259Z,7.87
2023-04-26T08:35:53.615Z,8.33
2023-04-26T08:42:13.162Z,8.72
2023-04-26T08:48:36.392Z,8.95
2023-04-26T08:54:56.222Z,9.03
2023-04-26T09:01:19.212Z,9.33
2023-04-26T09:07:39.181Z,9.47
2023-04-26T09:14:02.347Z,9.37
2023-04-26T09:20:22.224Z,9.58
2023-04-26T09:26:45.213Z,9.64
2023-04-26T09:33:05.321Z,9.7
2023-04-26T09:39:28.227Z,9.33
2023-04-26T09:45:48.270Z,9.38
2023-04-26T09:52:11.252Z,9.58
2023-04-26T09:58:31.240Z,9.94
2023-04-26T10:04:54.425Z,10.52
2023-04-26T10:11:14.244Z,10.54
2023-04-26T10:17:37.270Z,10.58
2023-04-26T10:23:58.339Z,10.77
2023-04-26T10:30:21.365Z,11.43
2023-04-26T10:36:41.208Z,11.49
2023-04-26T10:43:04.178Z,11.42
2023-04-26T10:49:26.526Z,11.66
2023-04-26T10:55:47.182Z,11.51
2023-04-26T11:02:07.195Z,12.21
2023-04-26T11:08:30.336Z,12.88
2023-04-26T11:14:50.198Z,12.58
2023-04-26T11:21:13.199Z,13
2023-04-26T11:27:33.186Z,13.51
2023-04-26T11:33:56.195Z,13.65
2023-04-26T11:40:16.165Z,13.78
2023-04-26T11:46:39.375Z,13.67
2023-04-26T11:52:59.247Z,13.27
2023-04-26T11:59:22.391Z,12.96
2023-04-26T12:05:42.429Z,13.3
2023-04-26T12:12:05.240Z,13.98
2023-04-26T12:18:25.171Z,14.91
2023-04-26T12:24:48.310Z,15.46
2023-04-26T12:31:08.170Z,14.86
2023-04-26T12:37:31.360Z,14.26
2023-04-26T12:43:52.228Z,14.38
2023-04-26T12:50:16.050Z,14.48
2023-04-26T12:56:35.241Z,14.84
2023-04-26T13:02:58.238Z,15.3
2023-04-26T13:09:18.170Z,14.61
2023-04-26T13:15:41.236Z,14.98
2023-04-26T13:22:01.217Z,15.66
2023-04-26T13:37:53.065Z,15.89
2023-04-26T13:44:13.170Z,15.78
2023-04-26T13:50:36.180Z,15.77
2023-04-26T13:56:56.176Z,15.39
2023-04-26T14:03:19.343Z,14.95
2023-04-26T14:09:39.201Z,15.48
2023-04-26T14:16:02.260Z,15.63
2023-04-26T14:22:22.192Z,15.58
2023-04-26T14:28:45.190Z,16.06
2023-04-26T14:35:05.248Z,15.85
2023-04-26T14:41:28.210Z,15.87
2023-04-26T14:47:48.230Z,15.46
2023-04-26T14:54:11.194Z,14.58
2023-04-26T15:00:31.186Z,13.8
2023-04-26T15:06:54.158Z,13.33
2023-04-26T15:13:14.210Z,13.38
2023-04-26T15:19:37.289Z,13.53
2023-04-26T15:25:57.265Z,13.77
2023-04-26T15:32:20.209Z,14.16
2023-04-26T15:38:40.178Z,14.44
2023-04-26T15:45:03.204Z,14.58
2023-04-26T15:51:23.233Z,14.28
2023-04-26T15:57:46.267Z,14.3
2023-04-26T16:04:06.313Z,14.22
2023-04-26T16:10:29.239Z,14.1
2023-04-26T16:16:49.155Z,14.59
2023-04-26T16:23:14.196Z,15.6
2023-04-26T16:29:34.195Z,16.35
2023-04-26T16:35:57.197Z,16.59
2023-04-26T16:42:17.164Z,16.6
2023-04-26T16:48:40.186Z,16.1
2023-04-26T16:55:00.278Z,15.77
2023-04-26T17:01:23.190Z,15.85
2023-04-26T17:07:43.209Z,15.63
2023-04-26T17:14:06.157Z,15.14
2023-04-26T17:20:26.161Z,14.73
2023-04-26T17:26:49.188Z,14.43
2023-04-26T17:33:09.246Z,14.26
2023-04-26T17:39:32.184Z,13.75
2023-04-26T17:45:52.223Z,13.28
2023-04-26T17:52:15.173Z,12.73
2023-04-26T17:58:35.253Z,12.56
2023-04-26T18:04:58.227Z,12.45
2023-04-26T18:11:20.432Z,12.34
2023-04-26T18:17:41.266Z,12.11
2023-04-26T18:24:01.196Z,11.88
2023-04-26T18:30:24.201Z,11.61
2023-04-26T18:36:44.155Z,11.29
2023-04-26T18:43:07.216Z,11.08
2023-04-26T18:49:27.248Z,10.88
2023-04-26T19:05:02.289Z,10.6
2023-04-26T19:11:22.150Z,10.42
2023-04-26T19:17:45.220Z,10.18
2023-04-26T19:24:05.209Z,10.05
2023-04-26T19:30:28.156Z,9.92
2023-04-26T19:36:48.237Z,9.88
2023-04-26T19:43:11.195Z,9.79
2023-04-26T19:49:31.222Z,9.74
2023-04-26T19:55:54.411Z,9.64
2023-04-26T20:02:14.414Z,9.57
2023-04-26T20:08:37.208Z,9.52
2023-04-26T20:14:57.257Z,9.53
2023-04-26T20:21:20.195Z,9.56
2023-04-26T20:27:40.244Z,9.53
2023-04-26T20:34:03.167Z,9.48
2023-04-26T20:40:23.202Z,9.47
2023-04-26T20:46:46.185Z,9.39
2023-04-26T20:53:06.221Z,9.32
2023-04-26T20:59:29.473Z,9.31
2023-04-26T21:05:49.183Z,9.29
2023-04-26T21:12:12.216Z,9.24
2023-04-26T21:18:32.289Z,9.18
2023-04-26T21:24:55.180Z,9.19
2023-04-26T21:31:15.226Z,9.14
2023-04-26T21:37:38.238Z,9.16
2023-04-26T21:43:58.175Z,9.13
2023-04-26T21:50:21.198Z,9.12
2023-04-26T21:56:41.238Z,9.09
2023-04-26T22:20:58.188Z,8.59
2023-04-26T22:27:18.218Z,8.51
2023-04-26T22:33:41.242Z,8.54
2023-04-26T22:40:01.237Z,8.58
2023-04-26T22:46:24.219Z,8.44
2023-04-26T22:52:44.195Z,8.4
2023-04-26T22:59:07.271Z,8.34
2023-04-26T23:05:27.261Z,8.3
2023-04-26T23:11:50.213Z,8.18
2023-04-26T23:18:10.203Z,8
2023-04-26T23:24:33.204Z,7.89
2023-04-26T23:30:53.203Z,7.88
2023-04-26T23:37:16.424Z,7.88
2023-04-26T23:43:36.268Z,7.91
2023-04-26T23:49:59.217Z,7.94
2023-04-26T23:56:19.225Z,7.91
